sensor_id;sensor_type;location;lat;lon;timestamp;P1;durP1;ratioP1;P2;durP2;ratioP2
29006;SDS011;16104;48.642;9.008;2024-03-06T00:01:17;4.63;;;2.90;;
29006;SDS011;16104;48.642;9.008;2024-03-06T00:06:13;3.67;;;2.60;;
29006;SDS011;16104;48.642;9.008;2024-03-06T00:11:08;6.72;;;2.65;;
29006;SDS011;16104;48.642;9.008;2024-03-06T00:16:04;2.70;;;2.22;;
29006;SDS011;16104;48.642;9.008;2024-03-06T00:20:59;3.63;;;2.83;;
29006;SDS011;16104;48.642;9.008;2024-03-06T00:25:55;3.53;;;2.70;;
29006;SDS011;16104;48.642;9.008;2024-03-06T00:30:50;4.22;;;2.65;;
29006;SDS011;16104;48.642;9.008;2024-03-06T00:35:46;3.47;;;2.53;;
29006;SDS011;16104;48.642;9.008;2024-03-06T00:40:42;3.05;;;2.50;;
29006;SDS011;16104;48.642;9.008;2024-03-06T00:45:37;3.50;;;2.40;;
29006;SDS011;16104;48.642;9.008;2024-03-06T00:50:33;3.22;;;2.10;;
29006;SDS011;16104;48.642;9.008;2024-03-06T00:55:28;2.92;;;2.17;;
29006;SDS011;16104;48.642;9.008;2024-03-06T01:00:24;5.85;;;2.50;;
29006;SDS011;16104;48.642;9.008;2024-03-06T05:03:18;6.68;;;3.60;;
29006;SDS011;16104;48.642;9.008;2024-03-06T05:08:13;5.72;;;3.45;;
29006;SDS011;16104;48.642;9.008;2024-03-06T05:13:09;7.70;;;4.00;;
29006;SDS011;16104;48.642;9.008;2024-03-06T05:18:05;7.05;;;3.78;;
29006;SDS011;16104;48.642;9.008;2024-03-06T05:23:01;8.38;;;4.28;;
29006;SDS011;16104;48.642;9.008;2024-03-06T05:27:57;8.32;;;4.20;;
29006;SDS011;16104;48.642;9.008;2024-03-06T05:32:52;8.73;;;4.03;;
29006;SDS011;16104;48.642;9.008;2024-03-06T05:37:48;6.97;;;4.00;;
29006;SDS011;16104;48.642;9.008;2024-03-06T05:42:43;7.88;;;3.40;;
29006;SDS011;16104;48.642;9.008;2024-03-06T05:47:39;6.88;;;3.55;;
29006;SDS011;16104;48.642;9.008;2024-03-06T05:52:35;5.32;;;3.92;;
29006;SDS011;16104;48.642;9.008;2024-03-06T05:57:31;6.30;;;4.13;;
29006;SDS011;16104;48.642;9.008;2024-03-06T06:02:27;7.45;;;4.13;;
29006;SDS011;16104;48.642;9.008;2024-03-06T06:07:22;8.75;;;4.57;;
29006;SDS011;16104;48.642;9.008;2024-03-06T06:12:18;8.07;;;4.03;;
29006;SDS011;16104;48.642;9.008;2024-03-06T06:17:13;7.15;;;4.45;;
29006;SDS011;16104;48.642;9.008;2024-03-06T06:22:10;8.32;;;4.80;;
29006;SDS011;16104;48.642;9.008;2024-03-06T06:27:06;12.95;;;5.28;;
29006;SDS011;16104;48.642;9.008;2024-03-06T06:32:02;6.50;;;3.75;;
29006;SDS011;16104;48.642;9.008;2024-03-06T06:36:58;9.52;;;4.13;;
29006;SDS011;16104;48.642;9.008;2024-03-06T06:41:53;5.38;;;3.38;;
29006;SDS011;16104;48.642;9.008;2024-03-06T06:46:49;5.28;;;3.58;;
29006;SDS011;16104;48.642;9.008;2024-03-06T06:51:44;6.88;;;3.92;;
29006;SDS011;16104;48.642;9.008;2024-03-06T06:56:40;5.38;;;3.20;;
29006;SDS011;16104;48.642;9.008;2024-03-06T07:01:35;9.68;;;4.03;;
29006;SDS011;16104;48.642;9.008;2024-03-06T07:06:32;6.90;;;3.58;;
29006;SDS011;16104;48.642;9.008;2024-03-06T07:11:27;5.85;;;3.30;;
29006;SDS011;16104;48.642;9.008;2024-03-06T07:16:23;8.02;;;3.35;;
29006;SDS011;16104;48.642;9.008;2024-03-06T07:21:19;4.32;;;3.20;;
29006;SDS011;16104;48.642;9.008;2024-03-06T07:26:14;6.72;;;3.95;;
29006;SDS011;16104;48.642;9.008;2024-03-06T07:31:10;6.88;;;4.20;;
29006;SDS011;16104;48.642;9.008;2024-03-06T07:36:05;7.85;;;4.13;;
29006;SDS011;16104;48.642;9.008;2024-03-06T07:41:01;6.47;;;4.07;;
29006;SDS011;16104;48.642;9.008;2024-03-06T07:45:57;7.55;;;4.47;;
29006;SDS011;16104;48.642;9.008;2024-03-06T07:50:52;7.25;;;4.07;;
29006;SDS011;16104;48.642;9.008;2024-03-06T07:55:48;10.82;;;4.30;;
29006;SDS011;16104;48.642;9.008;2024-03-06T08:00:43;5.55;;;3.45;;
29006;SDS011;16104;48.642;9.008;2024-03-06T08:05:39;9.05;;;4.15;;
29006;SDS011;16104;48.642;9.008;2024-03-06T08:10:34;6.55;;;3.70;;
29006;SDS011;16104;48.642;9.008;2024-03-06T08:15:30;5.80;;;3.40;;
29006;SDS011;16104;48.642;9.008;2024-03-06T08:20:25;7.70;;;3.42;;
29006;SDS011;16104;48.642;9.008;2024-03-06T08:25:22;6.28;;;3.10;;
29006;SDS011;16104;48.642;9.008;2024-03-06T08:30:18;5.25;;;3.17;;
29006;SDS011;16104;48.642;9.008;2024-03-06T08:35:14;5.15;;;3.17;;
29006;SDS011;16104;48.642;9.008;2024-03-06T08:40:10;7.70;;;3.50;;
29006;SDS011;16104;48.642;9.008;2024-03-06T08:45:09;7.13;;;3.57;;
29006;SDS011;16104;48.642;9.008;2024-03-06T08:50:06;9.52;;;3.90;;
29006;SDS011;16104;48.642;9.008;2024-03-06T08:55:05;9.70;;;4.03;;
29006;SDS011;16104;48.642;9.008;2024-03-06T09:00:01;5.45;;;3.55;;
29006;SDS011;16104;48.642;9.008;2024-03-06T09:04:57;7.07;;;3.42;;
29006;SDS011;16104;48.642;9.008;2024-03-06T09:09:53;7.65;;;3.13;;
29006;SDS011;16104;48.642;9.008;2024-03-06T09:14:49;4.93;;;3.13;;
29006;SDS011;16104;48.642;9.008;2024-03-06T09:19:44;5.50;;;3.13;;
29006;SDS011;16104;48.642;9.008;2024-03-06T09:24:40;6.10;;;3.47;;
29006;SDS011;16104;48.642;9.008;2024-03-06T09:29:35;7.18;;;3.03;;
29006;SDS011;16104;48.642;9.008;2024-03-06T09:34:31;4.32;;;2.88;;
29006;SDS011;16104;48.642;9.008;2024-03-06T09:39:26;7.32;;;3.72;;
29006;SDS011;16104;48.642;9.008;2024-03-06T09:44:22;7.55;;;3.80;;
29006;SDS011;16104;48.642;9.008;2024-03-06T09:49:18;9.00;;;4.55;;
29006;SDS011;16104;48.642;9.008;2024-03-06T09:54:14;7.25;;;3.95;;
29006;SDS011;16104;48.642;9.008;2024-03-06T09:59:09;11.13;;;4.55;;
29006;SDS011;16104;48.642;9.008;2024-03-06T10:04:21;7.93;;;4.80;;
29006;SDS011;16104;48.642;9.008;2024-03-06T10:09:22;7.22;;;4.32;;
29006;SDS011;16104;48.642;9.008;2024-03-06T10:14:18;7.78;;;4.72;;
29006;SDS011;16104;48.642;9.008;2024-03-06T10:19:14;8.07;;;5.07;;
29006;SDS011;16104;48.642;9.008;2024-03-06T10:24:18;6.35;;;5.38;;
29006;SDS011;16104;48.642;9.008;2024-03-06T10:29:18;8.02;;;5.32;;
29006;SDS011;16104;48.642;9.008;2024-03-06T10:34:15;7.38;;;4.95;;
29006;SDS011;16104;48.642;9.008;2024-03-06T10:39:11;10.85;;;5.60;;
29006;SDS011;16104;48.642;9.008;2024-03-06T10:44:11;7.57;;;5.70;;
29006;SDS011;16104;48.642;9.008;2024-03-06T10:49:10;8.98;;;6.00;;
29006;SDS011;16104;48.642;9.008;2024-03-06T10:54:07;7.20;;;6.07;;
29006;SDS011;16104;48.642;9.008;2024-03-06T10:59:04;8.38;;;6.68;;
29006;SDS011;16104;48.642;9.008;2024-03-06T11:04:01;11.80;;;8.38;;
29006;SDS011;16104;48.642;9.008;2024-03-06T11:08:58;11.82;;;8.95;;
29006;SDS011;16104;48.642;9.008;2024-03-06T11:13:54;11.68;;;8.57;;
29006;SDS011;16104;48.642;9.008;2024-03-06T11:19:04;12.25;;;9.32;;
29006;SDS011;16104;48.642;9.008;2024-03-06T11:24:16;11.65;;;9.45;;
29006;SDS011;16104;48.642;9.008;2024-03-06T11:29:15;12.65;;;9.73;;
29006;SDS011;16104;48.642;9.008;2024-03-06T11:34:14;11.52;;;9.48;;
29006;SDS011;16104;48.642;9.008;2024-03-06T11:39:11;16.02;;;10.27;;
29006;SDS011;16104;48.642;9.008;2024-03-06T11:44:12;18.52;;;11.77;;
29006;SDS011;16104;48.642;9.008;2024-03-06T11:49:20;15.25;;;11.32;;
29006;SDS011;16104;48.642;9.008;2024-03-06T11:54:19;17.48;;;12.77;;
29006;SDS011;16104;48.642;9.008;2024-03-06T11:59:25;17.52;;;14.25;;
29006;SDS011;16104;48.642;9.008;2024-03-06T12:04:24;16.83;;;13.27;;
29006;SDS011;16104;48.642;9.008;2024-03-06T12:09:20;20.75;;;14.38;;
29006;SDS011;16104;48.642;9.008;2024-03-06T12:14:17;16.75;;;12.82;;
29006;SDS011;16104;48.642;9.008;2024-03-06T12:19:13;19.10;;;13.95;;
29006;SDS011;16104;48.642;9.008;2024-03-06T12:24:08;19.95;;;13.90;;
29006;SDS011;16104;48.642;9.008;2024-03-06T12:29:05;21.08;;;14.23;;
29006;SDS011;16104;48.642;9.008;2024-03-06T12:34:02;18.77;;;13.20;;
29006;SDS011;16104;48.642;9.008;2024-03-06T12:38:59;17.75;;;13.02;;
29006;SDS011;16104;48.642;9.008;2024-03-06T12:43:55;19.08;;;13.43;;
29006;SDS011;16104;48.642;9.008;2024-03-06T12:48:51;18.95;;;13.27;;
29006;SDS011;16104;48.642;9.008;2024-03-06T12:53:47;15.75;;;12.32;;
29006;SDS011;16104;48.642;9.008;2024-03-06T12:58:43;15.32;;;12.27;;
29006;SDS011;16104;48.642;9.008;2024-03-06T13:03:39;17.13;;;13.32;;
29006;SDS011;16104;48.642;9.008;2024-03-06T13:08:34;21.00;;;13.88;;
29006;SDS011;16104;48.642;9.008;2024-03-06T13:13:31;17.90;;;12.43;;
29006;SDS011;16104;48.642;9.008;2024-03-06T13:18:28;16.23;;;12.40;;
29006;SDS011;16104;48.642;9.008;2024-03-06T13:23:24;16.17;;;11.75;;
29006;SDS011;16104;48.642;9.008;2024-03-06T13:28:19;16.65;;;12.30;;
29006;SDS011;16104;48.642;9.008;2024-03-06T13:33:16;17.33;;;12.15;;
29006;SDS011;16104;48.642;9.008;2024-03-06T13:38:11;18.15;;;12.98;;
29006;SDS011;16104;48.642;9.008;2024-03-06T13:43:07;16.02;;;12.23;;
29006;SDS011;16104;48.642;9.008;2024-03-06T13:48:02;16.25;;;13.07;;
29006;SDS011;16104;48.642;9.008;2024-03-06T13:53:00;17.75;;;12.25;;
29006;SDS011;16104;48.642;9.008;2024-03-06T13:57:55;15.35;;;12.30;;
29006;SDS011;16104;48.642;9.008;2024-03-06T14:02:51;14.52;;;11.73;;
29006;SDS011;16104;48.642;9.008;2024-03-06T14:07:46;20.95;;;12.88;;
29006;SDS011;16104;48.642;9.008;2024-03-06T14:12:42;16.48;;;12.35;;
29006;SDS011;16104;48.642;9.008;2024-03-06T14:17:38;15.88;;;12.25;;
29006;SDS011;16104;48.642;9.008;2024-03-06T14:22:34;19.00;;;11.98;;
29006;SDS011;16104;48.642;9.008;2024-03-06T14:27:30;15.45;;;11.60;;
29006;SDS011;16104;48.642;9.008;2024-03-06T14:32:26;15.43;;;12.02;;
29006;SDS011;16104;48.642;9.008;2024-03-06T14:37:21;15.00;;;11.63;;
29006;SDS011;16104;48.642;9.008;2024-03-06T14:42:17;13.80;;;11.43;;
29006;SDS011;16104;48.642;9.008;2024-03-06T14:47:12;14.82;;;12.02;;
29006;SDS011;16104;48.642;9.008;2024-03-06T14:52:08;14.80;;;12.35;;
29006;SDS011;16104;48.642;9.008;2024-03-06T14:57:04;13.63;;;11.82;;
29006;SDS011;16104;48.642;9.008;2024-03-06T15:02:01;14.63;;;11.27;;
29006;SDS011;16104;48.642;9.008;2024-03-06T15:06:58;16.80;;;13.15;;
29006;SDS011;16104;48.642;9.008;2024-03-06T15:11:56;16.83;;;11.98;;
29006;SDS011;16104;48.642;9.008;2024-03-06T15:16:53;15.70;;;12.55;;
29006;SDS011;16104;48.642;9.008;2024-03-06T15:21:49;22.42;;;16.88;;
29006;SDS011;16104;48.642;9.008;2024-03-06T15:26:44;17.33;;;13.52;;
29006;SDS011;16104;48.642;9.008;2024-03-06T15:31:40;17.02;;;12.02;;
29006;SDS011;16104;48.642;9.008;2024-03-06T15:36:35;16.75;;;12.73;;
29006;SDS011;16104;48.642;9.008;2024-03-06T15:41:31;16.48;;;12.27;;
29006;SDS011;16104;48.642;9.008;2024-03-06T15:46:27;16.88;;;11.68;;
29006;SDS011;16104;48.642;9.008;2024-03-06T15:51:23;17.35;;;11.75;;
29006;SDS011;16104;48.642;9.008;2024-03-06T15:56:18;15.65;;;11.60;;
29006;SDS011;16104;48.642;9.008;2024-03-06T16:01:14;14.88;;;11.35;;
29006;SDS011;16104;48.642;9.008;2024-03-06T16:06:09;16.95;;;11.82;;
29006;SDS011;16104;48.642;9.008;2024-03-06T16:11:05;14.98;;;11.82;;
29006;SDS011;16104;48.642;9.008;2024-03-06T16:16:01;15.65;;;11.88;;
29006;SDS011;16104;48.642;9.008;2024-03-06T16:20:57;16.65;;;11.60;;
29006;SDS011;16104;48.642;9.008;2024-03-06T16:25:53;18.48;;;12.13;;
29006;SDS011;16104;48.642;9.008;2024-03-06T16:30:48;17.88;;;13.00;;
29006;SDS011;16104;48.642;9.008;2024-03-06T16:35:44;19.58;;;13.02;;
29006;SDS011;16104;48.642;9.008;2024-03-06T16:40:39;17.80;;;12.82;;
29006;SDS011;16104;48.642;9.008;2024-03-06T16:45:35;20.90;;;14.07;;
29006;SDS011;16104;48.642;9.008;2024-03-06T16:50:30;19.42;;;12.98;;
29006;SDS011;16104;48.642;9.008;2024-03-06T16:55:26;20.75;;;14.57;;
29006;SDS011;16104;48.642;9.008;2024-03-06T17:00:21;19.73;;;14.07;;
29006;SDS011;16104;48.642;9.008;2024-03-06T17:05:19;22.63;;;14.93;;
29006;SDS011;16104;48.642;9.008;2024-03-06T17:10:15;27.85;;;19.05;;
29006;SDS011;16104;48.642;9.008;2024-03-06T17:15:11;23.23;;;16.60;;
29006;SDS011;16104;48.642;9.008;2024-03-06T17:20:08;20.50;;;14.98;;
29006;SDS011;16104;48.642;9.008;2024-03-06T17:25:04;31.65;;;21.65;;
29006;SDS011;16104;48.642;9.008;2024-03-06T17:29:59;23.38;;;16.48;;
29006;SDS011;16104;48.642;9.008;2024-03-06T17:34:55;24.45;;;16.30;;
29006;SDS011;16104;48.642;9.008;2024-03-06T17:39:51;27.50;;;19.20;;
29006;SDS011;16104;48.642;9.008;2024-03-06T17:44:46;25.17;;;17.40;;
29006;SDS011;16104;48.642;9.008;2024-03-06T17:49:42;27.63;;;19.02;;
29006;SDS011;16104;48.642;9.008;2024-03-06T17:54:39;27.75;;;18.58;;
29006;SDS011;16104;48.642;9.008;2024-03-06T17:59:34;24.90;;;16.60;;
29006;SDS011;16104;48.642;9.008;2024-03-06T18:04:30;28.13;;;18.58;;
29006;SDS011;16104;48.642;9.008;2024-03-06T18:09:25;25.83;;;17.95;;
29006;SDS011;16104;48.642;9.008;2024-03-06T18:14:21;28.05;;;18.98;;
29006;SDS011;16104;48.642;9.008;2024-03-06T18:19:17;28.88;;;19.85;;
29006;SDS011;16104;48.642;9.008;2024-03-06T18:24:13;28.38;;;19.02;;
29006;SDS011;16104;48.642;9.008;2024-03-06T18:29:09;29.70;;;20.02;;
29006;SDS011;16104;48.642;9.008;2024-03-06T18:34:04;28.70;;;19.95;;
29006;SDS011;16104;48.642;9.008;2024-03-06T18:39:00;28.48;;;20.05;;
29006;SDS011;16104;48.642;9.008;2024-03-06T18:43:55;27.02;;;17.88;;
29006;SDS011;16104;48.642;9.008;2024-03-06T18:48:53;32.20;;;22.05;;
29006;SDS011;16104;48.642;9.008;2024-03-06T18:53:49;29.00;;;20.05;;
29006;SDS011;16104;48.642;9.008;2024-03-06T18:58:45;30.02;;;21.45;;
29006;SDS011;16104;48.642;9.008;2024-03-06T19:03:40;32.55;;;22.13;;
29006;SDS011;16104;48.642;9.008;2024-03-06T19:08:36;27.85;;;19.00;;
29006;SDS011;16104;48.642;9.008;2024-03-06T19:13:32;29.45;;;19.77;;
29006;SDS011;16104;48.642;9.008;2024-03-06T19:18:28;27.15;;;19.90;;
29006;SDS011;16104;48.642;9.008;2024-03-06T19:23:23;30.50;;;19.40;;
29006;SDS011;16104;48.642;9.008;2024-03-06T19:28:19;29.75;;;20.63;;
29006;SDS011;16104;48.642;9.008;2024-03-06T19:33:15;29.95;;;21.05;;
29006;SDS011;16104;48.642;9.008;2024-03-06T19:38:11;32.42;;;21.38;;
29006;SDS011;16104;48.642;9.008;2024-03-06T19:43:09;33.53;;;21.20;;
29006;SDS011;16104;48.642;9.008;2024-03-06T19:48:06;31.15;;;20.27;;
29006;SDS011;16104;48.642;9.008;2024-03-06T19:53:02;35.15;;;23.42;;
29006;SDS011;16104;48.642;9.008;2024-03-06T19:57:58;32.60;;;22.25;;
29006;SDS011;16104;48.642;9.008;2024-03-06T20:02:54;34.30;;;23.73;;
29006;SDS011;16104;48.642;9.008;2024-03-06T20:07:49;35.20;;;23.40;;
29006;SDS011;16104;48.642;9.008;2024-03-06T20:12:45;34.75;;;23.15;;
29006;SDS011;16104;48.642;9.008;2024-03-06T20:17:41;30.25;;;21.83;;
29006;SDS011;16104;48.642;9.008;2024-03-06T20:22:37;30.55;;;22.00;;
29006;SDS011;16104;48.642;9.008;2024-03-06T20:27:34;33.67;;;22.20;;
29006;SDS011;16104;48.642;9.008;2024-03-06T20:32:29;36.08;;;22.17;;
29006;SDS011;16104;48.642;9.008;2024-03-06T20:37:25;36.08;;;22.63;;
29006;SDS011;16104;48.642;9.008;2024-03-06T20:42:20;34.20;;;22.23;;
29006;SDS011;16104;48.642;9.008;2024-03-06T20:47:16;36.50;;;22.95;;
29006;SDS011;16104;48.642;9.008;2024-03-06T20:52:12;34.00;;;22.52;;
29006;SDS011;16104;48.642;9.008;2024-03-06T20:57:07;34.47;;;22.50;;
29006;SDS011;16104;48.642;9.008;2024-03-06T21:02:02;34.58;;;21.25;;
29006;SDS011;16104;48.642;9.008;2024-03-06T21:06:58;35.30;;;22.35;;
29006;SDS011;16104;48.642;9.008;2024-03-06T21:11:54;35.42;;;23.05;;
29006;SDS011;16104;48.642;9.008;2024-03-06T21:16:49;35.10;;;23.40;;
29006;SDS011;16104;48.642;9.008;2024-03-06T21:21:48;36.08;;;22.80;;
29006;SDS011;16104;48.642;9.008;2024-03-06T21:26:46;35.70;;;22.92;;
29006;SDS011;16104;48.642;9.008;2024-03-06T21:31:44;35.58;;;22.48;;
29006;SDS011;16104;48.642;9.008;2024-03-06T21:36:39;36.20;;;21.50;;
29006;SDS011;16104;48.642;9.008;2024-03-06T21:41:38;36.75;;;22.13;;
29006;SDS011;16104;48.642;9.008;2024-03-06T21:46:33;36.40;;;22.45;;
29006;SDS011;16104;48.642;9.008;2024-03-06T21:51:29;33.70;;;21.58;;
29006;SDS011;16104;48.642;9.008;2024-03-06T21:56:24;39.15;;;23.45;;
29006;SDS011;16104;48.642;9.008;2024-03-06T22:01:20;34.78;;;21.73;;
29006;SDS011;16104;48.642;9.008;2024-03-06T22:06:15;37.78;;;22.98;;
29006;SDS011;16104;48.642;9.008;2024-03-06T22:11:11;35.05;;;21.90;;
29006;SDS011;16104;48.642;9.008;2024-03-06T22:16:06;38.88;;;22.67;;
29006;SDS011;16104;48.642;9.008;2024-03-06T22:21:02;36.75;;;21.90;;
29006;SDS011;16104;48.642;9.008;2024-03-06T22:25:58;37.55;;;23.15;;
29006;SDS011;16104;48.642;9.008;2024-03-06T22:30:54;33.08;;;19.73;;
29006;SDS011;16104;48.642;9.008;2024-03-06T22:35:49;38.15;;;23.20;;
29006;SDS011;16104;48.642;9.008;2024-03-06T22:40:45;37.38;;;23.13;;
29006;SDS011;16104;48.642;9.008;2024-03-06T22:45:40;37.50;;;23.42;;
29006;SDS011;16104;48.642;9.008;2024-03-06T22:50:36;34.10;;;22.27;;
29006;SDS011;16104;48.642;9.008;2024-03-06T22:55:32;40.67;;;25.67;;
29006;SDS011;16104;48.642;9.008;2024-03-06T23:00:27;37.47;;;23.27;;
29006;SDS011;16104;48.642;9.008;2024-03-06T23:05:33;38.30;;;23.10;;
29006;SDS011;16104;48.642;9.008;2024-03-06T23:10:28;35.50;;;22.95;;
29006;SDS011;16104;48.642;9.008;2024-03-06T23:15:24;40.67;;;24.10;;
29006;SDS011;16104;48.642;9.008;2024-03-06T23:20:19;40.08;;;23.38;;
29006;SDS011;16104;48.642;9.008;2024-03-06T23:25:15;35.28;;;21.92;;
29006;SDS011;16104;48.642;9.008;2024-03-06T23:30:12;35.45;;;22.67;;
29006;SDS011;16104;48.642;9.008;2024-03-06T23:35:09;39.50;;;24.15;;
29006;SDS011;16104;48.642;9.008;2024-03-06T23:40:07;39.08;;;23.42;;
29006;SDS011;16104;48.642;9.008;2024-03-06T23:45:04;39.85;;;23.67;;
29006;SDS011;16104;48.642;9.008;2024-03-06T23:50:03;38.00;;;24.25;;
29006;SDS011;16104;48.642;9.008;2024-03-06T23:55:00;37.35;;;23.17;;
29006;SDS011;16104;48.642;9.008;2024-03-06T23:59:56;39.60;;;24.13;;
